Terminal Aerodrome Forecast
Issued by NWS

Home | Current Version | Previous Version | Text Only | Print | Product List | Glossary On
Versions: 1 2 3 4 5 6 7 8 9 10 11
000
FTUS41 KLWX 221100
TAFMTN
TAF
KMTN 221140Z 2212/2312 05004KT P6SM SCT050 BKN090
     FM221700 04005KT 5SM -RA OVC050
     FM221900 03005KT 3SM -RA SCT025 OVC050
     FM231100 36004KT 3SM BR OVC008=

USA.gov is the U.S. government's official web portal to all federal, state and local government web resources and services.